createdAt,value
2018-12-23T00:00:12.823Z,97.60
2018-12-23T00:02:45.926Z,97.80
2018-12-23T00:05:19.094Z,98.50
2018-12-23T00:07:52.262Z,98.90
2018-12-23T00:10:25.920Z,99.50
2018-12-23T00:12:59.113Z,99.90
2018-12-23T00:15:31.847Z,99.90
2018-12-23T00:18:05.168Z,99.90
2018-12-23T00:20:39.636Z,99.90
2018-12-23T00:23:12.647Z,99.90
2018-12-23T00:25:48.407Z,99.90
2018-12-23T00:28:21.134Z,99.90
2018-12-23T00:30:55.992Z,99.90
2018-12-23T00:33:30.278Z,99.90
2018-12-23T00:36:03.073Z,99.90
2018-12-23T00:38:36.811Z,99.90
2018-12-23T00:41:09.631Z,99.90
2018-12-23T00:43:44.716Z,99.90
2018-12-23T00:46:17.703Z,99.90
2018-12-23T00:48:51.377Z,99.90
2018-12-23T00:51:24.477Z,99.90
2018-12-23T00:53:57.421Z,99.90
2018-12-23T00:56:31.027Z,99.90
2018-12-23T00:59:04.274Z,99.90
2018-12-23T01:01:38.307Z,99.90
2018-12-23T01:04:10.799Z,99.90
2018-12-23T01:06:43.478Z,99.90
2018-12-23T01:09:15.951Z,99.90
2018-12-23T01:11:49.274Z,99.90
2018-12-23T01:14:22.041Z,99.90
2018-12-23T01:16:57.246Z,99.90
2018-12-23T01:19:30.264Z,99.90
2018-12-23T01:22:04.142Z,99.90
2018-12-23T01:24:37.362Z,99.90
2018-12-23T01:27:10.155Z,99.90
2018-12-23T01:29:42.906Z,99.90
2018-12-23T01:32:15.268Z,99.90
2018-12-23T01:34:49.307Z,99.90
2018-12-23T01:37:23.228Z,99.90
2018-12-23T01:39:56.077Z,99.90
2018-12-23T01:42:28.770Z,99.90
2018-12-23T01:45:03.605Z,99.90
2018-12-23T01:47:36.683Z,99.90
2018-12-23T01:50:09.922Z,99.90
2018-12-23T01:52:42.841Z,99.90
2018-12-23T01:55:15.723Z,99.90
2018-12-23T01:57:48.691Z,99.90
2018-12-23T02:00:22.382Z,99.90
2018-12-23T02:02:55.921Z,99.90
2018-12-23T02:05:28.834Z,99.90
2018-12-23T02:08:02.335Z,99.90
2018-12-23T02:10:35.268Z,99.90
2018-12-23T02:13:08.441Z,99.90
2018-12-23T02:15:41.262Z,99.90
2018-12-23T02:18:14.266Z,99.90
2018-12-23T02:20:47.215Z,99.90
2018-12-23T02:23:20.086Z,99.90
2018-12-23T02:25:53.283Z,99.90
2018-12-23T02:28:26.484Z,99.90
2018-12-23T02:30:59.567Z,99.90
2018-12-23T02:33:33.326Z,99.90
2018-12-23T02:36:05.995Z,99.90
2018-12-23T02:38:40.171Z,99.90
2018-12-23T02:41:12.957Z,99.90
2018-12-23T02:43:45.752Z,99.90
2018-12-23T02:46:19.686Z,99.90
2018-12-23T02:48:52.132Z,99.90
2018-12-23T02:51:24.882Z,99.90
2018-12-23T02:53:57.843Z,99.90
2018-12-23T02:56:30.679Z,99.90
2018-12-23T02:59:04.628Z,99.90
2018-12-23T03:01:37.330Z,99.90
2018-12-23T03:04:10.939Z,99.90
2018-12-23T03:06:48.364Z,99.90
2018-12-23T03:09:24.461Z,99.90
2018-12-23T03:11:57.967Z,99.90
2018-12-23T03:14:31.755Z,99.90
2018-12-23T03:17:04.172Z,99.90
2018-12-23T03:19:37.831Z,99.90
2018-12-23T03:22:10.652Z,99.90
2018-12-23T03:24:52.640Z,99.90
2018-12-23T03:27:30.836Z,99.90
2018-12-23T03:30:04.604Z,99.90
2018-12-23T03:32:37.332Z,99.90
2018-12-23T03:35:10.304Z,99.90
2018-12-23T03:37:43.232Z,99.90
2018-12-23T03:40:16.208Z,99.90
2018-12-23T03:42:49.343Z,99.90
2018-12-23T03:45:21.862Z,99.90
2018-12-23T03:47:56.938Z,99.90
2018-12-23T03:50:30.487Z,99.90
2018-12-23T03:53:03.058Z,99.90
2018-12-23T03:55:36.095Z,99.90
2018-12-23T03:58:09.027Z,99.90
2018-12-23T04:00:41.935Z,99.90
2018-12-23T04:03:15.655Z,99.90
2018-12-23T04:05:48.247Z,99.90
2018-12-23T04:08:21.760Z,99.90
2018-12-23T04:10:54.623Z,99.90
2018-12-23T04:13:27.500Z,99.90
2018-12-23T04:16:00.467Z,99.90
2018-12-23T04:18:33.036Z,99.90
2018-12-23T04:21:06.866Z,99.90
2018-12-23T04:23:40.189Z,99.90
2018-12-23T04:26:14.981Z,99.90
2018-12-23T04:28:47.918Z,99.90
2018-12-23T04:31:20.765Z,99.90
2018-12-23T04:33:54.437Z,99.90
2018-12-23T04:36:34.021Z,99.90
2018-12-23T04:39:03.135Z,99.90
2018-12-23T04:41:35.901Z,99.90
2018-12-23T04:44:08.830Z,99.90
2018-12-23T04:46:41.747Z,99.90
2018-12-23T04:49:14.642Z,99.90
2018-12-23T04:51:47.764Z,99.90
2018-12-23T04:54:20.978Z,99.90
2018-12-23T04:56:58.729Z,99.90
2018-12-23T04:59:31.534Z,99.90
2018-12-23T05:02:04.595Z,99.90
2018-12-23T05:04:37.539Z,99.90
2018-12-23T05:07:10.324Z,99.90
2018-12-23T05:09:42.939Z,99.90
2018-12-23T05:12:15.734Z,99.90
2018-12-23T05:14:48.587Z,99.90
2018-12-23T05:17:21.546Z,99.90
2018-12-23T05:19:54.283Z,99.90
2018-12-23T05:22:27.842Z,99.90
2018-12-23T05:25:00.508Z,99.90
2018-12-23T05:27:32.978Z,99.90
2018-12-23T05:30:06.310Z,99.90
2018-12-23T05:41:15.911Z,99.90
2018-12-23T05:43:59.169Z,99.90
2018-12-23T05:46:42.619Z,99.90
2018-12-23T05:49:26.456Z,99.90
2018-12-23T05:52:09.879Z,99.90
2018-12-23T05:54:54.047Z,99.90
2018-12-23T05:57:39.407Z,99.90
2018-12-23T06:00:23.864Z,99.90
2018-12-23T06:05:49.532Z,99.90
2018-12-23T06:08:34.102Z,99.90
2018-12-23T06:11:16.992Z,99.90
2018-12-23T06:14:00.209Z,99.90
2018-12-23T06:16:45.162Z,99.90
2018-12-23T06:19:28.688Z,99.90
2018-12-23T06:22:13.118Z,99.90
2018-12-23T06:24:56.396Z,99.90
2018-12-23T06:27:39.487Z,99.90
2018-12-23T06:30:22.192Z,99.90
2018-12-23T06:33:05.775Z,99.90
2018-12-23T06:35:48.740Z,99.90
2018-12-23T06:41:15.393Z,99.90
2018-12-23T06:43:58.672Z,99.90
2018-12-23T06:46:41.883Z,99.90
2018-12-23T06:52:07.647Z,99.90
2018-12-23T06:54:51.040Z,99.90
2018-12-23T06:57:34.624Z,99.90
2018-12-23T07:00:19.100Z,99.90
2018-12-23T07:03:01.977Z,99.90
2018-12-23T07:05:45.084Z,99.90
2018-12-23T07:08:27.803Z,99.90
2018-12-23T07:11:12.060Z,99.90
2018-12-23T07:13:56.612Z,99.90
2018-12-23T07:16:40.144Z,99.90
2018-12-23T07:19:23.998Z,99.90
2018-12-23T07:22:07.059Z,99.90
2018-12-23T07:24:50.283Z,99.90
2018-12-23T07:27:34.481Z,99.90
2018-12-23T07:30:18.231Z,99.90
2018-12-23T07:33:03.045Z,99.90
2018-12-23T07:35:46.111Z,99.90
2018-12-23T07:38:29.999Z,99.90
2018-12-23T07:41:13.707Z,99.90
2018-12-23T07:43:57.804Z,99.90
2018-12-23T07:46:42.550Z,99.90
2018-12-23T07:49:25.824Z,99.90
2018-12-23T07:52:09.079Z,99.90
2018-12-23T07:54:54.556Z,99.90
2018-12-23T07:57:38.402Z,99.90
2018-12-23T08:00:21.406Z,99.90
2018-12-23T08:03:03.971Z,99.90
2018-12-23T08:05:47.696Z,99.90
2018-12-23T08:08:31.347Z,99.90
2018-12-23T08:11:15.405Z,99.90
2018-12-23T08:13:59.519Z,99.90
2018-12-23T08:16:44.287Z,99.90
2018-12-23T08:19:27.947Z,99.90
2018-12-23T08:22:11.103Z,99.90
2018-12-23T08:24:57.147Z,99.90
2018-12-23T08:27:43.291Z,99.90
2018-12-23T08:30:27.506Z,99.90
2018-12-23T08:33:14.431Z,99.90
2018-12-23T08:35:58.994Z,99.90
2018-12-23T08:38:43.131Z,99.90
2018-12-23T08:41:27.236Z,99.90
2018-12-23T08:44:10.222Z,99.90
2018-12-23T08:46:54.113Z,99.90
2018-12-23T08:49:37.647Z,99.90
2018-12-23T08:52:20.387Z,99.90
2018-12-23T08:57:45.873Z,99.90
2018-12-23T09:00:29.856Z,99.90
2018-12-23T09:03:18.810Z,99.90
2018-12-23T09:05:59.228Z,99.90
2018-12-23T09:08:43.599Z,99.90
2018-12-23T09:11:28.335Z,99.90
2018-12-23T09:14:12.819Z,99.90
2018-12-23T09:16:56.101Z,99.90
2018-12-23T09:19:39.536Z,99.90
2018-12-23T09:22:23.108Z,99.90
2018-12-23T09:25:06.950Z,99.90
2018-12-23T09:27:50.763Z,99.90
2018-12-23T09:30:34.918Z,99.90
2018-12-23T09:33:18.322Z,99.90
2018-12-23T09:36:01.235Z,99.90
2018-12-23T09:38:44.232Z,99.90
2018-12-23T09:41:27.759Z,99.90
2018-12-23T09:44:11.194Z,99.90
2018-12-23T09:46:55.619Z,99.90
2018-12-23T09:52:22.456Z,99.90
2018-12-23T09:55:05.283Z,99.90
2018-12-23T09:57:48.302Z,99.90
2018-12-23T10:00:31.793Z,99.90
2018-12-23T10:03:16.863Z,99.90
2018-12-23T10:06:00.672Z,99.90
2018-12-23T10:08:44.915Z,99.90
2018-12-23T10:11:28.592Z,99.90
2018-12-23T10:16:55.987Z,99.90
2018-12-23T10:19:41.041Z,99.90
2018-12-23T10:22:24.062Z,99.90
2018-12-23T10:27:50.739Z,99.90
2018-12-23T10:33:20.720Z,99.90
2018-12-23T10:36:04.173Z,99.90
2018-12-23T10:38:48.620Z,99.90
2018-12-23T10:41:32.016Z,99.90
2018-12-23T10:44:17.384Z,99.90
2018-12-23T10:47:00.764Z,99.90
2018-12-23T10:49:44.103Z,99.90
2018-12-23T10:52:27.049Z,99.90
2018-12-23T10:55:10.100Z,99.90
2018-12-23T10:57:54.105Z,99.90
2018-12-23T11:00:37.724Z,99.90
2018-12-23T11:03:20.701Z,99.90
2018-12-23T11:06:04.881Z,99.90
2018-12-23T11:08:47.816Z,99.90
2018-12-23T11:11:31.892Z,99.90
2018-12-23T11:14:15.004Z,99.90
2018-12-23T11:16:58.822Z,99.90
2018-12-23T11:19:43.222Z,99.90
2018-12-23T11:25:08.774Z,99.90
2018-12-23T11:27:52.277Z,99.90
2018-12-23T11:30:35.294Z,99.90
2018-12-23T11:33:19.580Z,99.90
2018-12-23T11:36:03.110Z,99.90
2018-12-23T11:38:47.411Z,99.90
2018-12-23T11:41:30.450Z,99.90
2018-12-23T11:44:14.797Z,99.90
2018-12-23T11:46:58.269Z,99.90
2018-12-23T11:49:41.157Z,99.90
2018-12-23T11:52:24.214Z,99.90
2018-12-23T11:55:07.844Z,99.90
2018-12-23T12:00:34.250Z,99.90
2018-12-23T12:03:19.005Z,99.90
2018-12-23T12:06:03.786Z,99.90
2018-12-23T12:08:48.673Z,99.90
2018-12-23T12:11:32.439Z,99.90
2018-12-23T12:14:16.379Z,99.90
2018-12-23T12:16:59.302Z,99.90
2018-12-23T12:19:44.038Z,99.90
2018-12-23T12:22:27.150Z,99.90
2018-12-23T12:25:12.108Z,99.90
2018-12-23T12:27:55.557Z,99.90
2018-12-23T12:30:39.206Z,99.90
2018-12-23T12:33:22.476Z,99.90
2018-12-23T12:36:07.146Z,99.90
2018-12-23T12:38:52.204Z,99.90
2018-12-23T12:41:37.258Z,99.90
2018-12-23T12:44:21.078Z,99.90
2018-12-23T12:47:04.750Z,99.90
2018-12-23T12:49:48.196Z,99.90
2018-12-23T12:52:31.886Z,99.90
2018-12-23T12:55:15.198Z,99.90
2018-12-23T12:57:58.543Z,99.90
2018-12-23T13:00:42.516Z,99.90
2018-12-23T13:03:25.435Z,99.90
2018-12-23T13:06:09.486Z,99.90
2018-12-23T13:09:00.297Z,99.90
2018-12-23T13:11:36.461Z,99.90
2018-12-23T13:14:19.349Z,99.90
2018-12-23T13:17:03.880Z,99.90
2018-12-23T13:19:48.298Z,99.90
2018-12-23T13:22:31.930Z,99.90
2018-12-23T13:25:15.162Z,99.90
2018-12-23T13:27:59.109Z,99.90
2018-12-23T13:30:42.199Z,99.90
2018-12-23T13:33:26.032Z,99.90
2018-12-23T13:38:55.187Z,99.90
2018-12-23T13:44:22.591Z,99.90
2018-12-23T13:47:06.291Z,99.90
2018-12-23T13:49:49.595Z,99.90
2018-12-23T13:52:33.888Z,99.90
2018-12-23T13:55:16.836Z,99.90
2018-12-23T13:58:01.244Z,99.90
2018-12-23T14:00:45.776Z,99.90
2018-12-23T14:03:29.316Z,99.90
2018-12-23T14:06:12.235Z,99.90
2018-12-23T14:08:55.356Z,99.90
2018-12-23T14:11:40.299Z,99.90
2018-12-23T14:14:23.799Z,99.90
2018-12-23T14:19:53.148Z,99.90
2018-12-23T14:22:36.011Z,99.90
2018-12-23T14:28:03.119Z,99.90
2018-12-23T14:33:35.969Z,99.90
2018-12-23T14:39:03.289Z,99.90
2018-12-23T14:47:17.531Z,99.90
2018-12-23T14:50:00.701Z,99.90
2018-12-23T14:52:44.020Z,99.90
2018-12-23T14:58:11.193Z,99.90
2018-12-23T15:00:56.451Z,99.90
2018-12-23T15:03:39.419Z,99.90
2018-12-23T15:06:22.412Z,99.90
2018-12-23T15:09:07.624Z,99.90
2018-12-23T15:11:51.263Z,99.90
2018-12-23T15:14:34.631Z,99.90
2018-12-23T15:17:18.228Z,99.90
2018-12-23T15:20:01.304Z,99.90
2018-12-23T15:22:44.518Z,99.90
2018-12-23T15:25:27.583Z,99.90
2018-12-23T15:28:11.447Z,99.90
2018-12-23T15:30:54.244Z,99.90
2018-12-23T15:36:19.300Z,99.90
2018-12-23T15:39:02.239Z,99.90
2018-12-23T15:41:45.494Z,99.90
2018-12-23T15:44:28.612Z,99.90
2018-12-23T15:47:11.791Z,99.90
2018-12-23T15:49:55.255Z,99.90
2018-12-23T15:52:38.904Z,99.90
2018-12-23T15:55:22.729Z,99.90
2018-12-23T15:58:06.112Z,99.90
2018-12-23T16:00:50.583Z,99.90
2018-12-23T16:03:34.140Z,99.90
2018-12-23T16:06:17.238Z,99.90
2018-12-23T16:09:02.612Z,99.90
2018-12-23T16:11:46.022Z,99.90
2018-12-23T16:14:29.212Z,99.90
2018-12-23T16:17:13.841Z,99.90
2018-12-23T16:19:57.042Z,99.90
2018-12-23T16:25:25.092Z,99.90
2018-12-23T16:28:08.851Z,99.90
2018-12-23T16:30:51.875Z,99.90
2018-12-23T16:33:35.223Z,99.90
2018-12-23T16:36:19.632Z,99.90
2018-12-23T16:39:03.556Z,99.90
2018-12-23T16:41:46.718Z,99.90
2018-12-23T16:44:30.259Z,99.90
2018-12-23T16:47:13.311Z,99.90
2018-12-23T16:49:56.716Z,99.90
2018-12-23T16:52:40.033Z,99.90
2018-12-23T16:55:24.568Z,99.90
2018-12-23T16:58:08.914Z,99.90
2018-12-23T17:00:52.615Z,99.90
2018-12-23T17:03:36.556Z,99.90
2018-12-23T17:06:20.370Z,99.90
2018-12-23T17:09:03.903Z,99.90
2018-12-23T17:11:48.074Z,99.90
2018-12-23T17:14:31.428Z,99.90
2018-12-23T17:17:14.283Z,99.90
2018-12-23T17:19:57.910Z,99.90
2018-12-23T17:22:43.296Z,99.90
2018-12-23T17:25:27.460Z,99.90
2018-12-23T17:28:10.574Z,99.90
2018-12-23T17:30:54.939Z,99.90
2018-12-23T17:33:37.827Z,99.90
2018-12-23T17:36:21.252Z,99.90
2018-12-23T17:39:05.668Z,99.90
2018-12-23T17:41:49.275Z,99.90
2018-12-23T17:44:32.586Z,99.90
2018-12-23T17:47:16.128Z,99.90
2018-12-23T17:49:58.695Z,99.90
2018-12-23T17:52:42.185Z,99.90
2018-12-23T17:55:25.395Z,99.90
2018-12-23T17:58:08.946Z,99.90
2018-12-23T18:00:52.228Z,99.90
2018-12-23T18:03:37.475Z,99.90
2018-12-23T18:06:20.400Z,99.90
2018-12-23T18:09:05.779Z,99.90
2018-12-23T18:11:49.291Z,99.90
2018-12-23T18:14:32.477Z,99.90
2018-12-23T18:22:49.991Z,99.90
2018-12-23T18:25:33.207Z,99.90
2018-12-23T18:28:16.108Z,99.90
2018-12-23T18:30:59.837Z,99.90
2018-12-23T18:33:43.274Z,99.90
2018-12-23T18:36:27.212Z,99.90
2018-12-23T18:39:10.578Z,99.90
2018-12-23T18:41:55.011Z,99.90
2018-12-23T18:47:21.175Z,99.90
2018-12-23T18:50:04.287Z,99.90
2018-12-23T18:52:47.296Z,99.90
2018-12-23T18:55:31.326Z,99.90
2018-12-23T18:58:14.418Z,99.90
2018-12-23T19:00:57.356Z,99.90
2018-12-23T19:03:40.899Z,99.90
2018-12-23T19:06:24.329Z,99.90
2018-12-23T19:09:07.733Z,99.90
2018-12-23T19:14:34.636Z,99.90
2018-12-23T19:22:53.672Z,99.90
2018-12-23T19:25:36.524Z,99.90
2018-12-23T19:28:22.003Z,99.90
2018-12-23T19:31:05.939Z,99.90
2018-12-23T19:33:49.034Z,99.70
2018-12-23T19:36:32.759Z,99.90
2018-12-23T19:39:16.435Z,99.90
2018-12-23T19:42:02.259Z,99.90
2018-12-23T19:44:45.745Z,99.90
2018-12-23T19:50:11.597Z,99.70
2018-12-23T19:52:55.059Z,99.50
2018-12-23T19:55:38.168Z,99.10
2018-12-23T19:58:22.850Z,99.00
2018-12-23T20:01:06.885Z,98.60
2018-12-23T20:06:32.863Z,99.10
2018-12-23T20:11:58.399Z,99.30
2018-12-23T20:14:42.104Z,99.30
2018-12-23T20:17:26.146Z,99.20
2018-12-23T20:20:09.924Z,98.80
2018-12-23T20:22:54.274Z,98.80
2018-12-23T20:25:37.292Z,98.90
2018-12-23T20:28:22.054Z,98.80
2018-12-23T20:31:05.456Z,98.40
2018-12-23T20:33:48.608Z,98.30
2018-12-23T20:36:31.820Z,98.40
2018-12-23T20:39:15.807Z,98.40
2018-12-23T20:42:00.572Z,98.30
2018-12-23T20:44:45.308Z,98.30
2018-12-23T20:47:28.518Z,98.40
2018-12-23T20:50:11.568Z,98.70
2018-12-23T20:55:37.329Z,98.80
2018-12-23T20:58:21.156Z,98.70
2018-12-23T21:01:04.338Z,98.30
2018-12-23T21:06:31.330Z,98.50
2018-12-23T21:09:15.099Z,98.70
2018-12-23T21:11:59.419Z,99.10
2018-12-23T21:14:42.827Z,99.30
2018-12-23T21:17:26.382Z,99.50
2018-12-23T21:20:10.355Z,99.30
2018-12-23T21:22:53.889Z,99.40
2018-12-23T21:28:20.039Z,99.70
2018-12-23T21:31:03.582Z,99.70
2018-12-23T21:33:46.715Z,99.70
2018-12-23T21:36:30.703Z,99.60
2018-12-23T21:39:40.764Z,99.60
2018-12-23T21:42:50.974Z,99.90
2018-12-23T21:45:34.652Z,99.90
2018-12-23T21:48:18.131Z,99.90
2018-12-23T21:51:01.999Z,99.90
2018-12-23T21:53:46.608Z,99.90
2018-12-23T21:56:29.624Z,99.90
2018-12-23T21:59:12.488Z,99.90
2018-12-23T22:01:56.758Z,99.90
2018-12-23T22:04:40.434Z,99.90
2018-12-23T22:07:24.590Z,99.90
2018-12-23T22:10:08.837Z,99.90
2018-12-23T22:12:52.087Z,99.90
2018-12-23T22:18:24.207Z,99.90
2018-12-23T22:21:08.315Z,99.90
2018-12-23T22:23:51.691Z,99.90
2018-12-23T22:29:19.254Z,99.90
2018-12-23T22:32:02.762Z,99.90
2018-12-23T22:34:47.375Z,99.90
2018-12-23T22:40:12.860Z,99.90
2018-12-23T22:42:56.333Z,99.90
2018-12-23T22:45:39.211Z,99.90
2018-12-23T22:48:13.999Z,99.90
2018-12-23T22:51:10.888Z,99.90
2018-12-23T22:54:04.378Z,99.90
2018-12-23T22:56:48.518Z,99.90
2018-12-23T23:02:14.268Z,99.90
2018-12-23T23:04:58.303Z,99.90
2018-12-23T23:07:41.851Z,99.90
2018-12-23T23:10:26.204Z,99.90
2018-12-23T23:13:18.314Z,99.90
2018-12-23T23:15:56.097Z,99.90
2018-12-23T23:18:41.225Z,99.90
2018-12-23T23:24:09.158Z,99.90
2018-12-23T23:29:35.307Z,99.90
2018-12-23T23:32:19.992Z,99.90
2018-12-23T23:35:03.932Z,99.90
2018-12-23T23:37:48.435Z,99.90
2018-12-23T23:40:32.125Z,99.90
2018-12-23T23:43:16.793Z,99.90
2018-12-23T23:45:59.741Z,99.90
2018-12-23T23:48:44.263Z,99.90
2018-12-23T23:51:28.632Z,99.90
2018-12-23T23:54:12.809Z,99.90
2018-12-23T23:56:56.709Z,99.90
2018-12-23T23:59:41.409Z,99.90
